createdAt,value
2023-03-08T00:00:18.581Z,9.36
2023-03-08T00:02:46.066Z,9.39
2023-03-08T00:05:13.352Z,9.47
2023-03-08T00:07:40.700Z,9.45
2023-03-08T00:10:08.496Z,9.51
2023-03-08T00:12:35.942Z,9.43
2023-03-08T00:15:03.617Z,9.48
2023-03-08T00:17:31.138Z,9.52
2023-03-08T00:19:58.522Z,9.45
2023-03-08T00:22:25.816Z,9.40
2023-03-08T00:24:53.312Z,9.46
2023-03-08T00:27:20.625Z,9.48
2023-03-08T00:29:47.899Z,9.49
2023-03-08T00:32:17.047Z,9.48
2023-03-08T00:34:47.005Z,9.55
2023-03-08T00:37:14.463Z,9.45
2023-03-08T00:39:41.758Z,9.46
2023-03-08T00:42:09.327Z,9.48
2023-03-08T00:44:36.837Z,9.46
2023-03-08T00:47:04.414Z,9.49
2023-03-08T00:49:31.856Z,9.49
2023-03-08T00:51:59.238Z,9.50
2023-03-08T00:54:26.640Z,9.44
2023-03-08T00:56:54.114Z,9.40
2023-03-08T00:59:21.494Z,9.48
2023-03-08T01:01:48.871Z,9.39
2023-03-08T01:04:16.092Z,9.37
2023-03-08T01:06:43.878Z,9.45
2023-03-08T01:09:12.257Z,9.41
2023-03-08T01:11:40.375Z,9.37
2023-03-08T01:14:09.084Z,9.46
2023-03-08T01:16:37.209Z,9.45
2023-03-08T01:19:05.358Z,9.44
2023-03-08T01:21:32.894Z,9.47
2023-03-08T01:24:00.690Z,9.46
2023-03-08T01:26:29.261Z,9.50
2023-03-08T01:28:57.748Z,9.53
2023-03-08T01:31:27.892Z,9.51
2023-03-08T01:33:57.765Z,9.51
2023-03-08T01:36:27.821Z,9.53
2023-03-08T01:38:55.757Z,9.50
2023-03-08T01:41:26.771Z,9.54
2023-03-08T01:43:54.697Z,9.53
2023-03-08T01:46:36.014Z,9.57
2023-03-08T01:49:11.868Z,9.52
2023-03-08T01:51:47.469Z,9.67
2023-03-08T01:54:23.621Z,9.67
2023-03-08T01:56:53.590Z,9.66
2023-03-08T01:59:23.104Z,9.71
2023-03-08T02:01:51.279Z,9.70
2023-03-08T02:04:20.204Z,9.76
2023-03-08T02:06:48.804Z,9.76
2023-03-08T02:09:21.685Z,9.89
2023-03-08T02:11:49.972Z,9.82
2023-03-08T02:14:17.482Z,9.99
2023-03-08T02:16:48.940Z,10.07
2023-03-08T02:19:32.272Z,10.11
2023-03-08T02:22:07.176Z,10.16
2023-03-08T02:24:34.669Z,10.25
2023-03-08T02:27:04.981Z,10.31
2023-03-08T02:29:34.619Z,10.46
2023-03-08T02:32:02.238Z,10.50
2023-03-08T02:34:30.322Z,10.58
2023-03-08T02:36:59.060Z,10.68
2023-03-08T02:39:26.907Z,10.75
2023-03-08T02:41:55.641Z,10.73
2023-03-08T02:44:23.165Z,10.86
2023-03-08T02:46:53.073Z,10.90
2023-03-08T02:49:20.670Z,10.97
2023-03-08T02:51:48.995Z,11.00
2023-03-08T02:54:17.092Z,11.01
2023-03-08T02:56:44.700Z,11.00
2023-03-08T02:59:14.318Z,11.07
2023-03-08T03:01:44.419Z,11.12
2023-03-08T03:04:11.983Z,11.23
2023-03-08T03:06:39.373Z,11.17
2023-03-08T03:09:08.751Z,11.23
2023-03-08T03:11:36.738Z,11.27
2023-03-08T03:14:04.293Z,11.33
2023-03-08T03:16:37.018Z,11.34
2023-03-08T03:19:04.603Z,11.29
2023-03-08T03:21:33.027Z,11.40
2023-03-08T03:24:00.867Z,11.39
2023-03-08T03:26:35.900Z,11.44
2023-03-08T03:29:03.383Z,11.44
2023-03-08T03:31:34.519Z,11.44
2023-03-08T03:34:02.781Z,11.46
2023-03-08T03:36:30.215Z,11.48
2023-03-08T03:38:58.971Z,11.47
2023-03-08T03:41:26.982Z,11.55
2023-03-08T03:44:05.378Z,11.52
2023-03-08T03:46:34.115Z,11.55
2023-03-08T03:49:02.609Z,11.57
2023-03-08T03:51:35.598Z,11.58
2023-03-08T03:54:23.325Z,11.58
2023-03-08T03:56:51.436Z,11.60
2023-03-08T03:59:23.563Z,11.61
2023-03-08T04:01:52.912Z,11.61
2023-03-08T04:04:25.561Z,11.60
2023-03-08T04:06:54.726Z,11.63
2023-03-08T04:09:25.948Z,11.65
2023-03-08T04:12:06.002Z,11.63
2023-03-08T04:14:35.313Z,11.60
2023-03-08T04:17:04.194Z,11.65
2023-03-08T04:19:39.141Z,11.62
2023-03-08T04:22:08.280Z,11.67
2023-03-08T04:24:43.772Z,11.66
2023-03-08T04:27:16.537Z,11.67
2023-03-08T04:29:44.052Z,11.65
2023-03-08T04:32:11.927Z,11.68
2023-03-08T04:34:49.854Z,11.65
2023-03-08T04:37:20.830Z,11.65
2023-03-08T04:39:53.158Z,11.63
2023-03-08T04:42:20.721Z,11.58
2023-03-08T04:44:48.840Z,11.58
2023-03-08T04:47:20.169Z,11.62
2023-03-08T04:49:47.781Z,11.65
2023-03-08T04:52:15.304Z,11.63
2023-03-08T04:54:43.619Z,11.67
2023-03-08T04:57:21.500Z,11.73
2023-03-08T04:59:51.482Z,11.70
2023-03-08T05:02:22.304Z,11.71
2023-03-08T05:04:50.421Z,11.71
2023-03-08T05:07:18.000Z,11.66
2023-03-08T05:09:46.616Z,11.66
2023-03-08T05:12:14.624Z,11.72
2023-03-08T05:14:55.016Z,11.69
2023-03-08T05:17:24.749Z,11.67
2023-03-08T05:19:52.770Z,11.69
2023-03-08T05:22:25.362Z,11.71
2023-03-08T05:24:56.276Z,11.72
2023-03-08T05:27:24.652Z,11.71
2023-03-08T05:29:53.236Z,11.74
2023-03-08T05:32:20.965Z,11.81
2023-03-08T05:34:52.813Z,11.81
2023-03-08T05:37:27.908Z,11.77
2023-03-08T05:40:00.185Z,11.81
2023-03-08T05:42:31.543Z,11.84
2023-03-08T05:45:00.623Z,11.88
2023-03-08T05:47:33.763Z,11.91
2023-03-08T05:50:01.361Z,11.91
2023-03-08T05:52:34.514Z,11.98
2023-03-08T05:55:02.481Z,11.98
2023-03-08T05:57:30.078Z,12.00
2023-03-08T05:59:57.596Z,12.02
2023-03-08T06:02:25.125Z,12.00
2023-03-08T06:04:56.132Z,12.04
2023-03-08T06:07:26.453Z,12.03
2023-03-08T06:09:59.455Z,12.02
2023-03-08T06:12:27.012Z,11.96
2023-03-08T06:14:58.320Z,11.93
2023-03-08T06:17:28.845Z,11.84
2023-03-08T06:19:57.842Z,11.79
2023-03-08T06:22:25.424Z,11.87
2023-03-08T06:24:54.988Z,11.90
2023-03-08T06:27:34.141Z,11.88
2023-03-08T06:30:06.146Z,11.82
2023-03-08T06:32:35.797Z,11.84
2023-03-08T06:35:04.257Z,11.90
2023-03-08T06:37:35.668Z,11.93
2023-03-08T06:40:05.930Z,11.90
2023-03-08T06:42:41.193Z,11.89
2023-03-08T06:45:13.338Z,11.83
2023-03-08T06:47:40.973Z,11.85
2023-03-08T06:50:11.785Z,11.83
2023-03-08T06:52:41.668Z,11.90
2023-03-08T06:55:10.493Z,11.90
2023-03-08T06:57:38.230Z,11.89
2023-03-08T07:00:06.297Z,11.82
2023-03-08T07:02:33.764Z,11.79
2023-03-08T07:05:01.149Z,11.83
2023-03-08T07:07:28.772Z,11.79
2023-03-08T07:09:56.276Z,11.84
2023-03-08T07:12:24.438Z,11.78
2023-03-08T07:14:53.224Z,11.73
2023-03-08T07:17:20.744Z,11.75
2023-03-08T07:19:48.123Z,11.86
2023-03-08T07:22:15.514Z,11.87
2023-03-08T07:24:42.929Z,11.89
2023-03-08T07:27:10.443Z,11.92
2023-03-08T07:29:37.865Z,11.95
2023-03-08T07:32:05.859Z,12.00
2023-03-08T07:34:33.425Z,12.17
2023-03-08T07:37:00.979Z,12.24
2023-03-08T07:39:28.551Z,12.28
2023-03-08T07:41:56.202Z,12.26
2023-03-08T07:44:23.907Z,12.26
2023-03-08T07:46:51.482Z,12.23
2023-03-08T07:49:21.684Z,12.13
2023-03-08T07:51:50.055Z,12.16
2023-03-08T07:54:17.566Z,12.06
2023-03-08T07:56:45.183Z,12.02
2023-03-08T07:59:12.716Z,12.06
2023-03-08T08:01:40.445Z,12.30
2023-03-08T08:04:09.097Z,12.42
2023-03-08T08:06:37.236Z,12.43
2023-03-08T08:09:05.186Z,12.46
2023-03-08T08:11:32.795Z,12.53
2023-03-08T08:14:01.788Z,12.60
2023-03-08T08:16:29.370Z,12.64
2023-03-08T08:18:56.837Z,12.55
2023-03-08T08:21:26.422Z,12.61
2023-03-08T08:23:58.500Z,12.59
2023-03-08T08:26:26.484Z,12.61
2023-03-08T08:28:54.931Z,12.63
2023-03-08T08:31:25.641Z,12.71
2023-03-08T08:33:53.139Z,12.80
2023-03-08T08:36:21.636Z,13.06
2023-03-08T08:38:51.810Z,13.59
2023-03-08T08:41:24.651Z,14.06
2023-03-08T08:43:52.940Z,14.40
2023-03-08T08:46:20.538Z,14.45
2023-03-08T08:48:48.081Z,14.17
2023-03-08T08:51:15.587Z,14.04
2023-03-08T08:53:44.365Z,13.93
2023-03-08T08:56:26.773Z,13.78
2023-03-08T08:58:57.679Z,13.73
2023-03-08T09:01:29.154Z,13.75
2023-03-08T09:03:56.696Z,13.67
2023-03-08T09:06:26.291Z,13.58
2023-03-08T09:08:56.265Z,13.44
2023-03-08T09:11:25.673Z,13.44
2023-03-08T09:13:54.312Z,13.47
2023-03-08T09:16:27.701Z,13.35
2023-03-08T09:18:57.123Z,13.34
2023-03-08T09:21:26.149Z,13.32
2023-03-08T09:23:54.306Z,13.19
2023-03-08T09:26:21.838Z,13.10
2023-03-08T09:28:49.350Z,13.04
2023-03-08T09:31:18.378Z,13.06
2023-03-08T09:33:48.558Z,13.06
2023-03-08T09:36:16.759Z,13.02
2023-03-08T09:38:44.591Z,13.01
2023-03-08T09:41:42.960Z,13.06
2023-03-08T09:44:16.646Z,13.07
2023-03-08T09:47:02.026Z,13.09
2023-03-08T09:49:31.682Z,13.09
2023-03-08T09:52:23.226Z,13.14
2023-03-08T09:54:52.089Z,13.19
2023-03-08T09:57:34.328Z,13.12
2023-03-08T10:00:09.973Z,13.09
2023-03-08T10:03:17.422Z,12.91
2023-03-08T10:06:05.308Z,12.86
2023-03-08T10:08:45.487Z,12.81
2023-03-08T10:11:24.659Z,12.74
2023-03-08T10:13:56.812Z,12.77
2023-03-08T10:16:28.586Z,12.83
2023-03-08T10:19:00.640Z,12.97
2023-03-08T10:21:32.886Z,13.05
2023-03-08T10:24:41.692Z,13.11
2023-03-08T10:27:32.343Z,13.20
2023-03-08T10:30:01.560Z,13.29
2023-03-08T10:32:29.405Z,13.28
2023-03-08T10:35:05.733Z,13.26
2023-03-08T10:37:34.484Z,13.40
2023-03-08T10:40:07.113Z,13.78
2023-03-08T10:42:36.373Z,14.13
2023-03-08T10:45:12.754Z,14.68
2023-03-08T10:47:40.997Z,15.06
2023-03-08T10:50:18.223Z,15.58
2023-03-08T10:52:48.318Z,15.80
2023-03-08T10:55:26.617Z,16.07
2023-03-08T10:57:56.630Z,16.20
2023-03-08T11:00:36.268Z,16.17
2023-03-08T11:03:17.102Z,16.24
2023-03-08T11:06:01.249Z,16.10
2023-03-08T11:08:32.707Z,15.76
2023-03-08T11:11:14.392Z,15.47
2023-03-08T11:13:47.702Z,15.16
2023-03-08T11:16:44.348Z,15.09
2023-03-08T11:19:34.951Z,14.76
2023-03-08T11:22:28.592Z,14.53
2023-03-08T11:25:14.462Z,14.53
2023-03-08T11:27:52.276Z,14.48
2023-03-08T11:30:37.818Z,14.35
2023-03-08T11:33:47.194Z,14.36
2023-03-08T11:37:05.285Z,14.11
2023-03-08T11:39:37.086Z,14.01
2023-03-08T11:42:22.831Z,13.79
2023-03-08T11:45:15.390Z,13.72
2023-03-08T11:47:58.185Z,13.70
2023-03-08T11:50:38.193Z,13.66
2023-03-08T11:53:18.501Z,13.53
2023-03-08T11:56:00.753Z,13.30
2023-03-08T11:58:49.444Z,13.12
2023-03-08T12:01:25.825Z,13.06
2023-03-08T12:03:58.875Z,13.06
2023-03-08T12:06:33.746Z,13.01
2023-03-08T12:09:08.153Z,12.96
2023-03-08T12:11:44.720Z,12.99
2023-03-08T12:14:30.574Z,13.02
2023-03-08T12:17:10.171Z,13.02
2023-03-08T12:19:44.676Z,13.07
2023-03-08T12:22:33.729Z,13.10
2023-03-08T12:25:23.066Z,13.13
2023-03-08T12:27:53.618Z,13.28
2023-03-08T12:30:27.295Z,13.40
2023-03-08T12:32:56.700Z,13.52
2023-03-08T12:35:28.927Z,13.63
2023-03-08T12:38:03.009Z,13.53
2023-03-08T12:40:52.101Z,13.55
2023-03-08T12:43:19.738Z,13.60
2023-03-08T12:46:01.215Z,13.57
2023-03-08T12:48:40.094Z,13.56
2023-03-08T12:51:13.406Z,13.49
2023-03-08T12:53:49.875Z,13.48
2023-03-08T12:56:26.639Z,13.54
2023-03-08T12:58:59.452Z,13.70
2023-03-08T13:01:32.009Z,13.84
2023-03-08T13:04:00.227Z,13.92
2023-03-08T13:06:52.755Z,13.93
2023-03-08T13:09:42.341Z,13.95
2023-03-08T13:12:15.747Z,13.96
2023-03-08T13:14:46.662Z,14.05
2023-03-08T13:17:32.545Z,14.07
2023-03-08T13:20:08.039Z,14.10
2023-03-08T13:22:58.584Z,14.09
2023-03-08T13:25:55.482Z,14.22
2023-03-08T13:28:32.286Z,14.25
2023-03-08T13:31:18.180Z,14.20
2023-03-08T13:33:47.848Z,14.19
2023-03-08T13:36:29.066Z,14.37
2023-03-08T13:39:05.753Z,14.66
2023-03-08T13:41:41.588Z,14.78
2023-03-08T13:44:22.408Z,14.74
2023-03-08T13:47:01.366Z,14.86
2023-03-08T13:49:43.474Z,14.97
2023-03-08T13:52:18.238Z,14.96
2023-03-08T13:54:51.400Z,14.92
2023-03-08T13:57:28.122Z,14.85
2023-03-08T13:59:58.197Z,14.72
2023-03-08T14:02:28.592Z,14.85
2023-03-08T14:04:57.438Z,14.79
2023-03-08T14:07:28.374Z,14.76
2023-03-08T14:09:56.713Z,14.73
2023-03-08T14:12:28.698Z,14.72
2023-03-08T14:15:00.422Z,14.67
2023-03-08T14:17:30.850Z,14.66
2023-03-08T14:20:07.338Z,14.69
2023-03-08T14:22:40.248Z,14.74
2023-03-08T14:25:25.361Z,14.70
2023-03-08T14:27:53.141Z,14.78
2023-03-08T14:30:29.476Z,14.79
2023-03-08T14:33:17.116Z,14.93
2023-03-08T14:35:53.754Z,14.91
2023-03-08T14:38:33.664Z,14.97
2023-03-08T14:41:06.395Z,15.03
2023-03-08T14:43:34.071Z,15.03
2023-03-08T14:46:05.453Z,15.10
2023-03-08T14:48:35.368Z,15.12
2023-03-08T14:51:02.939Z,15.10
2023-03-08T14:53:34.561Z,15.00
2023-03-08T14:56:16.206Z,15.08
2023-03-08T14:58:49.017Z,15.05
2023-03-08T15:01:43.793Z,15.09
2023-03-08T15:04:25.832Z,15.11
2023-03-08T15:06:54.726Z,15.12
2023-03-08T15:09:22.901Z,15.01
2023-03-08T15:11:52.973Z,15.12
2023-03-08T15:14:20.411Z,15.19
2023-03-08T15:16:47.976Z,15.07
2023-03-08T15:19:15.439Z,15.08
2023-03-08T15:21:43.137Z,15.14
2023-03-08T15:24:16.243Z,14.97
2023-03-08T15:26:44.631Z,14.96
2023-03-08T15:29:32.331Z,15.06
2023-03-08T15:32:01.885Z,15.02
2023-03-08T15:34:29.327Z,15.04
2023-03-08T15:36:57.000Z,15.04
2023-03-08T15:39:24.609Z,15.08
2023-03-08T15:41:52.244Z,15.05
2023-03-08T15:44:19.793Z,15.05
2023-03-08T15:46:47.535Z,15.05
2023-03-08T15:49:15.111Z,15.11
2023-03-08T15:51:42.804Z,15.08
2023-03-08T15:54:10.976Z,15.01
2023-03-08T15:56:38.411Z,14.96
2023-03-08T15:59:05.807Z,14.91
2023-03-08T16:01:33.459Z,14.82
2023-03-08T16:04:01.228Z,14.81
2023-03-08T16:06:28.832Z,14.74
2023-03-08T16:08:56.809Z,14.73
2023-03-08T16:11:24.303Z,14.75
2023-03-08T16:13:52.981Z,14.73
2023-03-08T16:16:21.279Z,14.64
2023-03-08T16:18:48.948Z,14.54
2023-03-08T16:21:17.168Z,14.50
2023-03-08T16:23:44.593Z,14.44
2023-03-08T16:26:17.269Z,14.37
2023-03-08T16:28:47.275Z,14.32
2023-03-08T16:31:16.545Z,14.25
2023-03-08T16:33:44.294Z,14.23
2023-03-08T16:36:12.627Z,14.14
2023-03-08T16:38:41.591Z,14.17
2023-03-08T16:41:13.120Z,14.02
2023-03-08T16:43:47.406Z,14.13
2023-03-08T16:46:20.063Z,14.10
2023-03-08T16:48:49.981Z,13.88
2023-03-08T16:51:19.411Z,13.75
2023-03-08T16:53:47.598Z,13.79
2023-03-08T16:56:22.239Z,13.83
2023-03-08T16:58:49.809Z,13.78
2023-03-08T17:01:19.472Z,13.66
2023-03-08T17:03:47.305Z,13.46
2023-03-08T17:06:17.697Z,13.53
2023-03-08T17:08:45.875Z,13.45
2023-03-08T17:11:22.469Z,13.37
2023-03-08T17:13:52.152Z,13.23
2023-03-08T17:16:21.713Z,13.12
2023-03-08T17:18:50.743Z,13.07
2023-03-08T17:21:19.675Z,13.04
2023-03-08T17:23:47.704Z,12.95
2023-03-08T17:26:17.083Z,12.88
2023-03-08T17:28:45.066Z,12.73
2023-03-08T17:31:16.426Z,12.73
2023-03-08T17:33:44.923Z,12.72
2023-03-08T17:36:14.225Z,12.79
2023-03-08T17:38:42.327Z,12.76
2023-03-08T17:41:14.212Z,12.70
2023-03-08T17:43:42.229Z,12.60
2023-03-08T17:46:17.152Z,12.47
2023-03-08T17:48:44.797Z,12.44
2023-03-08T17:51:17.517Z,12.45
2023-03-08T17:53:46.165Z,12.33
2023-03-08T17:56:16.179Z,12.34
2023-03-08T17:58:44.652Z,12.22
2023-03-08T18:01:16.321Z,12.18
2023-03-08T18:03:44.356Z,11.99
2023-03-08T18:06:25.703Z,11.90
2023-03-08T18:08:53.549Z,11.85
2023-03-08T18:11:21.020Z,11.67
2023-03-08T18:13:49.059Z,11.62
2023-03-08T18:16:16.512Z,11.44
2023-03-08T18:18:45.808Z,11.46
2023-03-08T18:21:14.404Z,11.40
2023-03-08T18:23:43.365Z,11.31
2023-03-08T18:26:13.534Z,11.37
2023-03-08T18:28:41.583Z,11.31
2023-03-08T18:31:12.657Z,11.32
2023-03-08T18:33:40.586Z,11.26
2023-03-08T18:36:08.273Z,11.28
2023-03-08T18:38:36.245Z,11.31
2023-03-08T18:41:21.397Z,11.17
2023-03-08T18:43:49.022Z,11.11
2023-03-08T18:46:16.803Z,11.19
2023-03-08T18:48:47.433Z,11.12
2023-03-08T18:51:16.562Z,11.16
2023-03-08T18:53:44.127Z,11.12
2023-03-08T18:56:11.728Z,11.08
2023-03-08T18:58:39.268Z,11.16
2023-03-08T19:01:13.266Z,11.15
2023-03-08T19:03:41.620Z,11.20
2023-03-08T19:06:09.952Z,11.23
2023-03-08T19:08:37.482Z,11.25
2023-03-08T19:11:16.892Z,11.25
2023-03-08T19:13:44.746Z,11.23
2023-03-08T19:16:23.818Z,11.20
2023-03-08T19:18:54.280Z,11.34
2023-03-08T19:21:27.962Z,11.26
2023-03-08T19:23:56.604Z,11.24
2023-03-08T19:26:38.934Z,11.24
2023-03-08T19:29:13.986Z,11.23
2023-03-08T19:31:43.219Z,11.24
2023-03-08T19:34:13.220Z,11.20
2023-03-08T19:36:42.244Z,11.31
2023-03-08T19:39:14.523Z,11.33
2023-03-08T19:41:42.855Z,11.31
2023-03-08T19:44:10.563Z,11.32
2023-03-08T19:46:39.422Z,11.30
2023-03-08T19:49:08.740Z,11.36
2023-03-08T19:51:36.312Z,11.21
2023-03-08T19:54:06.078Z,11.34
2023-03-08T19:56:34.221Z,11.35
2023-03-08T19:59:02.577Z,11.35
2023-03-08T20:01:30.154Z,11.40
2023-03-08T20:03:57.819Z,11.42
2023-03-08T20:06:46.692Z,11.45
2023-03-08T20:09:23.957Z,11.28
2023-03-08T20:11:57.373Z,11.32
2023-03-08T20:14:27.644Z,11.30
2023-03-08T20:16:56.203Z,11.37
2023-03-08T20:19:23.911Z,11.37
2023-03-08T20:21:51.353Z,11.41
2023-03-08T20:24:19.198Z,11.34
2023-03-08T20:26:47.003Z,11.31
2023-03-08T20:29:15.538Z,11.22
2023-03-08T20:31:44.277Z,11.20
2023-03-08T20:34:11.866Z,11.13
2023-03-08T20:36:39.336Z,11.09
2023-03-08T20:39:07.021Z,10.96
2023-03-08T20:41:34.932Z,10.90
2023-03-08T20:44:02.564Z,11.00
2023-03-08T20:46:33.934Z,10.94
2023-03-08T20:49:01.815Z,10.95
2023-03-08T20:51:29.509Z,10.96
2023-03-08T20:53:57.113Z,10.92
2023-03-08T20:56:25.883Z,10.92
2023-03-08T20:58:56.606Z,10.85
2023-03-08T21:01:29.824Z,10.82
2023-03-08T21:03:57.450Z,10.87
2023-03-08T21:06:28.091Z,10.79
2023-03-08T21:08:55.701Z,10.79
2023-03-08T21:11:23.526Z,10.77
2023-03-08T21:13:52.442Z,10.71
2023-03-08T21:16:22.415Z,10.79
2023-03-08T21:18:52.036Z,10.84
2023-03-08T21:21:24.364Z,10.91
2023-03-08T21:23:54.360Z,10.97
2023-03-08T21:26:24.493Z,10.93
2023-03-08T21:28:53.717Z,10.94
2023-03-08T21:31:21.562Z,10.96
2023-03-08T21:33:49.609Z,10.94
2023-03-08T21:36:17.365Z,10.85
2023-03-08T21:38:44.935Z,10.85
2023-03-08T21:41:20.436Z,10.90
2023-03-08T21:43:48.346Z,10.88
2023-03-08T21:46:16.690Z,10.86
2023-03-08T21:48:44.312Z,10.82
2023-03-08T21:51:12.193Z,10.87
2023-03-08T21:53:40.352Z,10.89
2023-03-08T21:56:12.910Z,10.91
2023-03-08T21:58:41.279Z,10.84
2023-03-08T22:01:21.740Z,10.83
2023-03-08T22:03:50.117Z,10.79
2023-03-08T22:06:17.891Z,10.76
2023-03-08T22:08:45.464Z,10.79
2023-03-08T22:11:13.465Z,10.77
2023-03-08T22:13:41.720Z,10.71
2023-03-08T22:16:09.577Z,10.85
2023-03-08T22:18:37.177Z,10.89
2023-03-08T22:21:04.789Z,10.79
2023-03-08T22:23:32.565Z,10.86
2023-03-08T22:26:00.001Z,10.86
2023-03-08T22:28:27.550Z,10.91
2023-03-08T22:30:55.016Z,10.87
2023-03-08T22:33:22.467Z,10.92
2023-03-08T22:35:49.829Z,10.86
2023-03-08T22:38:19.456Z,10.89
2023-03-08T22:40:46.907Z,10.87
2023-03-08T22:43:14.965Z,10.90
2023-03-08T22:45:42.452Z,10.82
2023-03-08T22:48:09.977Z,10.78
2023-03-08T22:50:37.561Z,10.79
2023-03-08T22:53:05.209Z,10.81
2023-03-08T22:55:32.868Z,10.85
2023-03-08T22:58:00.522Z,10.81
2023-03-08T23:00:28.066Z,10.80
2023-03-08T23:02:57.629Z,10.82
2023-03-08T23:05:25.152Z,10.74
2023-03-08T23:07:54.009Z,10.75
2023-03-08T23:10:21.926Z,10.77
2023-03-08T23:12:49.819Z,10.72
2023-03-08T23:15:17.601Z,10.70
2023-03-08T23:17:45.417Z,10.67
2023-03-08T23:20:13.664Z,10.68
2023-03-08T23:22:43.936Z,10.57
2023-03-08T23:25:13.109Z,10.44
2023-03-08T23:27:41.069Z,10.53
2023-03-08T23:30:12.738Z,10.47
2023-03-08T23:32:43.162Z,10.68
2023-03-08T23:35:11.800Z,10.67
2023-03-08T23:37:40.593Z,10.66
2023-03-08T23:40:14.484Z,10.77
2023-03-08T23:42:42.607Z,10.92
2023-03-08T23:45:10.527Z,10.80
2023-03-08T23:47:38.451Z,10.87
2023-03-08T23:50:06.821Z,10.95
2023-03-08T23:52:34.702Z,11.00
2023-03-08T23:55:02.423Z,11.10
2023-03-08T23:57:30.375Z,11.10
2023-03-08T23:59:58.466Z,11.15
